Decoded Metar for KGGI (GRINNELL REG in IA, USA) (IATA:GGI) | Meteo·Mobile Aviation Weather
aviador You're here:

KGGI Decoded Metar

GRINNELL REG in IA, USA
Report Time2018-09-18 15:35:00
UTC Time2018-09-18 15:43:31
Flight Rules vfr VFR
Wind030° at 17 Gusting to 26 kt
W.Decomp.*RWY 31: 3.5 kt HW 16.6 kt RCW
W.Rank030° ranks 36
Current wind is above 030° avg. (7.4)
Visibility9999 m
Phenomena:N/A
Clouds:Scattered 026 Hf
Broken 060 Hf
Overcast 085 Hf
Expected CloudBase > 3,600 ft AGL from Temp-Dew spread
Ceiling6,000 ft
Temp26°C (ISA +13)
Dew Point17°C (58% RH)
AAT22.3°C
QNH1016 hPa
Density Alt2,667 ft
Elevation1,007 ft
Report Wrong Elevation
Raw Report
KGGI 181535Z AUTO 03017G26KT 7SM SCT026 BKN060 OVC085 26/17 A3000
RMK AO2 T02580174=

Extra information for KGGI:More info

Metar Taf Metar & Taf Last 4 Metars F.Rules Stats Wind Profile Meteogram Temp Stats Airport Information Weather charts Add Link Nearby VenuesMetar ALERT Operation Metar Decoded Social comments

AIRNAV info for KGGI